createdAt,value
2022-10-08T00:01:02.272Z,14.49
2022-10-08T00:03:31.443Z,14.65
2022-10-08T00:06:14.756Z,14.73
2022-10-08T00:08:43.434Z,14.30
2022-10-08T00:11:12.356Z,14.44
2022-10-08T00:13:41.354Z,14.38
2022-10-08T00:16:13.737Z,14.91
2022-10-08T00:18:41.219Z,14.54
2022-10-08T00:21:14.303Z,15.08
2022-10-08T00:23:41.525Z,14.58
2022-10-08T00:26:08.399Z,13.63
2022-10-08T00:28:36.584Z,15.21
2022-10-08T00:31:08.227Z,15.10
2022-10-08T00:33:38.728Z,14.62
2022-10-08T00:36:07.758Z,15.17
2022-10-08T00:38:34.801Z,14.88
2022-10-08T00:41:01.572Z,14.63
2022-10-08T00:43:46.535Z,14.99
2022-10-08T00:46:23.097Z,15.14
2022-10-08T00:48:53.455Z,15.23
2022-10-08T00:51:19.982Z,15.41
2022-10-08T00:53:47.115Z,15.03
2022-10-08T00:56:13.716Z,15.40
2022-10-08T00:58:41.565Z,15.16
2022-10-08T01:01:08.584Z,15.42
2022-10-08T01:03:35.387Z,15.39
2022-10-08T01:06:22.159Z,15.59
2022-10-08T01:08:57.832Z,15.81
2022-10-08T01:11:43.104Z,15.50
2022-10-08T01:14:20.816Z,15.10
2022-10-08T01:17:25.803Z,15.42
2022-10-08T01:20:21.545Z,14.58
2022-10-08T01:23:13.022Z,14.58
2022-10-08T01:25:55.757Z,14.60
2022-10-08T01:28:36.426Z,15.37
2022-10-08T01:31:23.322Z,15.28
2022-10-08T01:33:59.028Z,15.49
2022-10-08T01:36:27.924Z,14.93
2022-10-08T01:38:57.795Z,14.36
2022-10-08T01:41:25.738Z,14.77
2022-10-08T01:44:08.431Z,14.92
2022-10-08T01:46:37.560Z,14.63
2022-10-08T01:49:08.091Z,14.35
2022-10-08T01:51:39.346Z,14.81
2022-10-08T01:54:08.506Z,15.01
2022-10-08T01:56:37.150Z,14.81
2022-10-08T01:59:08.732Z,14.91
2022-10-08T02:01:40.233Z,15.18
2022-10-08T02:04:25.605Z,14.86
2022-10-08T02:06:57.273Z,14.92
2022-10-08T02:09:27.982Z,13.89
2022-10-08T02:11:55.102Z,13.43
2022-10-08T02:14:25.754Z,14.11
2022-10-08T02:17:03.760Z,13.85
2022-10-08T02:19:47.084Z,13.92
2022-10-08T02:22:16.860Z,14.43
2022-10-08T02:24:48.015Z,14.32
2022-10-08T02:27:15.413Z,14.32
2022-10-08T02:29:45.548Z,14.03
2022-10-08T02:32:31.738Z,14.35
2022-10-08T02:35:05.393Z,14.29
2022-10-08T02:37:37.796Z,14.41
2022-10-08T02:40:11.419Z,14.06
2022-10-08T02:42:42.012Z,14.32
2022-10-08T02:45:14.039Z,14.57
2022-10-08T02:47:42.061Z,14.88
2022-10-08T02:50:15.714Z,15.28
2022-10-08T02:52:45.327Z,15.57
2022-10-08T02:55:22.629Z,15.33
2022-10-08T02:57:56.843Z,14.94
2022-10-08T03:00:23.602Z,15.05
2022-10-08T03:02:58.843Z,14.94
2022-10-08T03:05:26.434Z,14.48
2022-10-08T03:07:54.182Z,15.00
2022-10-08T03:10:25.811Z,15.13
2022-10-08T03:13:00.262Z,14.83
2022-10-08T03:15:27.794Z,15.01
2022-10-08T03:17:54.465Z,15.46
2022-10-08T03:20:21.329Z,15.53
2022-10-08T03:22:48.054Z,15.66
2022-10-08T03:25:14.816Z,14.98
2022-10-08T03:27:41.710Z,15.33
2022-10-08T03:30:08.959Z,15.54
2022-10-08T03:32:35.525Z,15.18
2022-10-08T03:35:02.425Z,15.06
2022-10-08T03:37:29.902Z,15.11
2022-10-08T03:39:56.365Z,14.68
2022-10-08T03:42:22.845Z,14.87
2022-10-08T03:44:49.305Z,14.72
2022-10-08T03:47:15.862Z,15.47
2022-10-08T03:49:42.427Z,14.39
2022-10-08T03:52:09.003Z,14.66
2022-10-08T03:54:36.855Z,14.39
2022-10-08T03:57:04.031Z,14.10
2022-10-08T03:59:30.833Z,14.32
2022-10-08T04:01:57.278Z,14.64
2022-10-08T04:04:25.751Z,14.00
2022-10-08T04:06:52.483Z,13.73
2022-10-08T04:09:19.221Z,14.10
2022-10-08T04:11:45.717Z,13.82
2022-10-08T04:14:12.228Z,13.25
2022-10-08T04:16:39.012Z,13.83
2022-10-08T04:19:05.786Z,13.50
2022-10-08T04:21:32.359Z,13.55
2022-10-08T04:23:58.869Z,13.75
2022-10-08T04:26:25.615Z,13.70
2022-10-08T04:28:52.297Z,13.76
2022-10-08T04:31:21.838Z,13.31
2022-10-08T04:33:49.728Z,13.27
2022-10-08T04:36:18.493Z,13.83
2022-10-08T04:38:45.932Z,13.69
2022-10-08T04:41:26.170Z,13.75
2022-10-08T04:43:54.432Z,13.30
2022-10-08T04:46:22.299Z,13.53
2022-10-08T04:48:51.631Z,13.91
2022-10-08T04:51:19.619Z,13.61
2022-10-08T04:53:46.808Z,13.55
2022-10-08T04:56:17.103Z,13.83
2022-10-08T04:58:44.141Z,13.54
2022-10-08T05:01:12.864Z,13.84
2022-10-08T05:03:41.633Z,14.41
2022-10-08T05:06:08.756Z,14.11
2022-10-08T05:08:35.709Z,14.35
2022-10-08T05:11:02.537Z,14.32
2022-10-08T05:13:29.507Z,14.45
2022-10-08T05:15:56.049Z,14.17
2022-10-08T05:18:22.920Z,14.37
2022-10-08T05:20:49.750Z,14.84
2022-10-08T05:23:16.440Z,14.70
2022-10-08T05:25:42.947Z,14.22
2022-10-08T05:28:09.448Z,13.73
2022-10-08T05:30:36.014Z,14.29
2022-10-08T05:33:02.605Z,14.29
2022-10-08T05:35:29.310Z,13.91
2022-10-08T05:37:55.909Z,13.72
2022-10-08T05:40:24.182Z,14.31
2022-10-08T05:42:50.988Z,14.34
2022-10-08T05:45:17.574Z,14.07
2022-10-08T05:47:44.106Z,13.81
2022-10-08T05:50:10.979Z,13.57
2022-10-08T05:52:37.483Z,14.41
2022-10-08T05:55:04.847Z,14.28
2022-10-08T05:57:31.318Z,14.28
2022-10-08T05:59:58.104Z,14.74
2022-10-08T06:02:24.640Z,14.55
2022-10-08T06:04:51.873Z,14.65
2022-10-08T06:07:18.554Z,14.90
2022-10-08T06:09:45.196Z,14.11
2022-10-08T06:12:16.138Z,14.47
2022-10-08T06:14:42.595Z,15.04
2022-10-08T06:17:09.239Z,14.84
2022-10-08T06:19:37.182Z,14.05
2022-10-08T06:22:04.890Z,14.78
2022-10-08T06:24:31.761Z,14.34
2022-10-08T06:26:58.355Z,14.90
2022-10-08T06:29:24.844Z,14.47
2022-10-08T06:31:51.917Z,14.84
2022-10-08T06:34:18.663Z,14.87
2022-10-08T06:36:45.171Z,15.30
2022-10-08T06:39:13.820Z,15.43
2022-10-08T06:41:40.364Z,14.69
2022-10-08T06:44:09.688Z,14.11
2022-10-08T06:46:36.220Z,14.35
2022-10-08T06:49:03.711Z,13.92
2022-10-08T06:51:30.700Z,14.41
2022-10-08T06:54:02.796Z,15.12
2022-10-08T06:56:29.639Z,14.64
2022-10-08T06:58:56.181Z,14.55
2022-10-08T07:01:29.027Z,14.12
2022-10-08T07:04:00.542Z,14.28
2022-10-08T07:06:27.199Z,13.92
2022-10-08T07:08:55.691Z,14.18
2022-10-08T07:11:23.046Z,14.80
2022-10-08T07:13:49.812Z,14.81
2022-10-08T07:16:20.500Z,14.80
2022-10-08T07:18:49.693Z,14.70
2022-10-08T07:21:17.498Z,14.43
2022-10-08T07:23:44.506Z,14.67
2022-10-08T07:26:24.993Z,13.93
2022-10-08T07:29:05.968Z,14.09
2022-10-08T07:31:37.878Z,14.00
2022-10-08T07:34:06.801Z,14.18
2022-10-08T07:36:33.744Z,14.35
2022-10-08T07:39:04.211Z,14.28
2022-10-08T07:41:31.795Z,14.25
2022-10-08T07:44:00.291Z,14.59
2022-10-08T07:46:28.286Z,14.67
2022-10-08T07:48:56.773Z,14.26
2022-10-08T07:51:23.377Z,14.89
2022-10-08T07:53:58.958Z,14.46
2022-10-08T07:56:28.900Z,14.75
2022-10-08T07:58:55.495Z,15.02
2022-10-08T08:01:26.457Z,15.02
2022-10-08T08:03:58.063Z,15.15
2022-10-08T08:06:24.905Z,15.47
2022-10-08T08:08:52.138Z,14.74
2022-10-08T08:11:20.581Z,15.44
2022-10-08T08:13:47.998Z,15.39
2022-10-08T08:16:19.560Z,15.08
2022-10-08T08:18:49.040Z,15.54
2022-10-08T08:21:21.600Z,15.71
2022-10-08T08:23:51.026Z,15.47
2022-10-08T08:26:26.587Z,15.59
2022-10-08T08:28:55.189Z,15.52
2022-10-08T08:31:24.225Z,15.19
2022-10-08T08:33:56.292Z,15.96
2022-10-08T08:36:31.058Z,16.04
2022-10-08T08:38:58.090Z,15.12
2022-10-08T08:41:33.779Z,15.97
2022-10-08T08:44:02.274Z,17.02
2022-10-08T08:46:32.651Z,16.62
2022-10-08T08:49:05.141Z,17.13
2022-10-08T08:51:31.697Z,18.19
2022-10-08T08:53:58.261Z,19.10
2022-10-08T08:56:25.074Z,18.55
2022-10-08T08:59:00.493Z,17.52
2022-10-08T09:01:30.101Z,17.55
2022-10-08T09:03:59.551Z,17.08
2022-10-08T09:06:26.351Z,16.25
2022-10-08T09:08:59.559Z,16.05
2022-10-08T09:11:26.434Z,16.76
2022-10-08T09:14:31.274Z,15.43
2022-10-08T09:17:00.787Z,15.49
2022-10-08T09:19:27.278Z,15.19
2022-10-08T09:21:53.869Z,15.26
2022-10-08T09:24:20.508Z,14.77
2022-10-08T09:26:47.018Z,14.61
2022-10-08T09:29:32.484Z,15.73
2022-10-08T09:31:59.188Z,15.94
2022-10-08T09:34:27.205Z,16.38
2022-10-08T09:37:03.272Z,21.05
2022-10-08T09:39:35.694Z,22.62
2022-10-08T09:42:14.611Z,20.45
2022-10-08T09:44:48.322Z,20.30
2022-10-08T09:47:17.511Z,23.03
2022-10-08T09:49:49.687Z,26.79
2022-10-08T09:52:27.042Z,31.94
2022-10-08T09:54:56.460Z,33.95
2022-10-08T09:57:23.039Z,30.69
2022-10-08T09:59:54.813Z,32.84
2022-10-08T10:02:41.490Z,32.15
2022-10-08T10:05:21.990Z,32.39
2022-10-08T10:07:48.759Z,29.95
2022-10-08T10:10:25.986Z,29.94
2022-10-08T10:12:55.624Z,32.62
2022-10-08T10:15:24.599Z,33.29
2022-10-08T10:17:54.487Z,34.32
2022-10-08T10:20:26.373Z,34.40
2022-10-08T10:22:55.755Z,31.06
2022-10-08T10:25:51.375Z,26.55
2022-10-08T10:28:35.659Z,24.64
2022-10-08T10:31:12.823Z,23.03
2022-10-08T10:33:50.011Z,20.09
2022-10-08T10:36:17.660Z,20.37
2022-10-08T10:38:53.629Z,19.15
2022-10-08T10:41:31.636Z,18.89
2022-10-08T10:44:01.162Z,18.84
2022-10-08T10:46:37.165Z,18.30
2022-10-08T10:49:12.680Z,19.95
2022-10-08T10:52:02.504Z,19.36
2022-10-08T10:54:36.432Z,22.94
2022-10-08T10:57:12.251Z,23.04
2022-10-08T10:59:47.917Z,19.98
2022-10-08T11:02:26.296Z,19.79
2022-10-08T11:05:04.357Z,19.73
2022-10-08T11:07:31.000Z,19.90
2022-10-08T11:10:11.993Z,25.46
2022-10-08T11:13:09.445Z,28.47
2022-10-08T11:15:42.244Z,31.53
2022-10-08T11:18:27.976Z,35.87
2022-10-08T11:21:09.211Z,32.18
2022-10-08T11:23:54.582Z,36.14
2022-10-08T11:26:28.411Z,33.74
2022-10-08T11:29:17.432Z,33.03
2022-10-08T11:31:51.024Z,30.06
2022-10-08T11:34:37.709Z,28.57
2022-10-08T11:37:14.233Z,27.08
2022-10-08T11:40:02.987Z,25.77
2022-10-08T11:42:46.198Z,22.89
2022-10-08T11:45:23.270Z,19.79
2022-10-08T11:47:54.452Z,18.96
2022-10-08T11:50:41.275Z,19.21
2022-10-08T11:53:10.889Z,20.62
2022-10-08T11:55:38.115Z,24.46
2022-10-08T11:58:08.360Z,28.23
2022-10-08T12:00:42.089Z,32.93
2022-10-08T12:03:20.982Z,36.03
2022-10-08T12:05:51.220Z,35.16
2022-10-08T12:08:50.867Z,27.96
2022-10-08T12:11:29.539Z,30.02
2022-10-08T12:14:11.611Z,27.67
2022-10-08T12:16:47.516Z,23.51
2022-10-08T12:19:32.644Z,21.61
2022-10-08T12:22:00.714Z,21.40
2022-10-08T12:24:36.907Z,19.98
2022-10-08T12:27:32.135Z,20.18
2022-10-08T12:30:12.182Z,19.53
2022-10-08T12:32:42.236Z,19.94
2022-10-08T12:35:23.767Z,20.19
2022-10-08T12:38:07.935Z,19.88
2022-10-08T12:40:38.323Z,20.32
2022-10-08T12:43:23.016Z,20.12
2022-10-08T12:45:59.202Z,20.23
2022-10-08T12:48:34.905Z,20.67
2022-10-08T12:51:21.719Z,20.21
2022-10-08T12:53:48.435Z,21.00
2022-10-08T12:56:26.051Z,20.68
2022-10-08T12:58:55.509Z,19.22
2022-10-08T13:01:22.459Z,19.40
2022-10-08T13:04:07.595Z,19.85
2022-10-08T13:06:34.767Z,20.37
2022-10-08T13:09:01.498Z,20.64
2022-10-08T13:11:28.192Z,20.10
2022-10-08T13:13:54.690Z,20.14
2022-10-08T13:16:22.638Z,19.90
2022-10-08T13:18:54.280Z,20.25
2022-10-08T13:21:36.824Z,21.05
2022-10-08T13:24:13.923Z,20.29
2022-10-08T13:26:43.323Z,20.17
2022-10-08T13:29:22.278Z,20.44
2022-10-08T13:31:56.592Z,19.20
2022-10-08T13:34:25.689Z,18.69
2022-10-08T13:36:56.703Z,19.75
2022-10-08T13:39:48.359Z,19.82
2022-10-08T13:42:16.867Z,19.15
2022-10-08T13:44:43.795Z,19.46
2022-10-08T13:47:18.925Z,19.54
2022-10-08T13:49:45.999Z,19.54
2022-10-08T13:52:24.199Z,19.54
2022-10-08T13:54:54.417Z,20.59
2022-10-08T13:57:20.888Z,20.28
2022-10-08T13:59:47.432Z,18.90
2022-10-08T14:02:14.523Z,19.69
2022-10-08T14:04:41.331Z,19.89
2022-10-08T14:07:20.585Z,19.19
2022-10-08T14:09:47.345Z,19.50
2022-10-08T14:12:14.286Z,19.78
2022-10-08T14:14:40.880Z,19.45
2022-10-08T14:17:07.361Z,19.29
2022-10-08T14:19:34.094Z,18.79
2022-10-08T14:22:00.935Z,18.82
2022-10-08T14:24:27.462Z,19.01
2022-10-08T14:26:54.115Z,18.87
2022-10-08T14:29:20.897Z,18.86
2022-10-08T14:31:47.466Z,18.52
2022-10-08T14:34:13.958Z,18.77
2022-10-08T14:36:41.675Z,18.43
2022-10-08T14:39:09.885Z,18.70
2022-10-08T14:41:36.844Z,19.01
2022-10-08T14:44:03.988Z,19.67
2022-10-08T14:46:30.541Z,19.61
2022-10-08T14:48:57.115Z,19.65
2022-10-08T14:51:23.946Z,18.93
2022-10-08T14:53:51.924Z,19.34
2022-10-08T14:56:18.585Z,19.76
2022-10-08T14:58:45.367Z,19.05
2022-10-08T15:01:12.021Z,19.65
2022-10-08T15:03:38.672Z,18.68
2022-10-08T15:06:05.391Z,19.28
2022-10-08T15:08:32.151Z,18.90
2022-10-08T15:11:01.654Z,19.05
2022-10-08T15:13:29.022Z,18.66
2022-10-08T15:15:55.793Z,19.05
2022-10-08T15:18:22.443Z,19.25
2022-10-08T15:20:56.714Z,18.90
2022-10-08T15:23:24.251Z,19.20
2022-10-08T15:26:01.357Z,19.33
2022-10-08T15:28:29.035Z,19.05
2022-10-08T15:31:03.411Z,18.98
2022-10-08T15:33:30.106Z,19.53
2022-10-08T15:35:56.756Z,19.34
2022-10-08T15:38:23.309Z,19.48
2022-10-08T15:40:49.854Z,18.68
2022-10-08T15:43:16.530Z,18.03
2022-10-08T15:45:43.753Z,18.33
2022-10-08T15:48:11.953Z,18.71
2022-10-08T15:50:39.398Z,18.75
2022-10-08T15:53:07.097Z,18.03
2022-10-08T15:55:33.773Z,18.57
2022-10-08T15:58:00.544Z,18.11
2022-10-08T16:00:27.212Z,18.11
2022-10-08T16:02:55.277Z,17.72
2022-10-08T16:05:21.885Z,17.77
2022-10-08T16:07:48.334Z,18.32
2022-10-08T16:10:15.020Z,18.50
2022-10-08T16:12:41.755Z,18.24
2022-10-08T16:15:09.391Z,17.99
2022-10-08T16:17:37.150Z,17.76
2022-10-08T16:20:04.232Z,18.42
2022-10-08T16:22:30.749Z,17.48
2022-10-08T16:24:57.218Z,17.18
2022-10-08T16:27:23.724Z,17.70
2022-10-08T16:29:50.380Z,17.47
2022-10-08T16:32:16.857Z,17.70
2022-10-08T16:34:45.292Z,17.40
2022-10-08T16:37:12.598Z,17.62
2022-10-08T16:39:39.013Z,17.87
2022-10-08T16:42:05.510Z,18.13
2022-10-08T16:44:31.969Z,18.29
2022-10-08T16:46:58.587Z,18.38
2022-10-08T16:49:27.579Z,18.53
2022-10-08T16:51:59.498Z,18.60
2022-10-08T16:54:26.550Z,18.39
2022-10-08T16:56:53.967Z,18.29
2022-10-08T16:59:23.041Z,18.47
2022-10-08T17:01:52.979Z,18.59
2022-10-08T17:04:20.967Z,18.03
2022-10-08T17:06:47.817Z,18.52
2022-10-08T17:09:14.333Z,18.03
2022-10-08T17:11:41.909Z,18.51
2022-10-08T17:14:10.152Z,18.44
2022-10-08T17:16:36.767Z,18.38
2022-10-08T17:19:04.571Z,18.36
2022-10-08T17:21:32.693Z,17.72
2022-10-08T17:23:59.945Z,18.12
2022-10-08T17:26:27.743Z,17.67
2022-10-08T17:28:54.785Z,17.71
2022-10-08T17:31:24.595Z,17.54
2022-10-08T17:33:51.078Z,17.58
2022-10-08T17:36:30.298Z,17.70
2022-10-08T17:38:59.095Z,17.56
2022-10-08T17:41:26.898Z,17.11
2022-10-08T17:43:55.673Z,17.26
2022-10-08T17:46:23.889Z,17.13
2022-10-08T17:48:50.870Z,17.21
2022-10-08T17:51:20.230Z,16.79
2022-10-08T17:54:07.391Z,16.79
2022-10-08T17:56:34.977Z,16.83
2022-10-08T17:59:01.488Z,16.28
2022-10-08T18:01:30.574Z,16.10
2022-10-08T18:03:59.703Z,16.54
2022-10-08T18:06:26.921Z,16.35
2022-10-08T18:09:04.485Z,16.31
2022-10-08T18:11:32.561Z,16.34
2022-10-08T18:13:59.182Z,16.40
2022-10-08T18:16:25.894Z,16.09
2022-10-08T18:18:52.449Z,16.34
2022-10-08T18:21:19.675Z,16.48
2022-10-08T18:23:47.137Z,16.45
2022-10-08T18:26:25.431Z,16.35
2022-10-08T18:28:54.135Z,16.35
2022-10-08T18:31:21.947Z,16.14
2022-10-08T18:33:50.276Z,16.39
2022-10-08T18:36:19.576Z,16.21
2022-10-08T18:38:48.013Z,16.02
2022-10-08T18:41:19.801Z,16.33
2022-10-08T18:43:47.675Z,16.39
2022-10-08T18:46:15.757Z,16.33
2022-10-08T18:48:42.494Z,16.09
2022-10-08T18:51:11.402Z,16.12
2022-10-08T18:53:39.711Z,15.97
2022-10-08T18:56:09.468Z,16.22
2022-10-08T18:58:36.789Z,16.23
2022-10-08T19:01:03.588Z,16.06
2022-10-08T19:03:30.202Z,15.98
2022-10-08T19:05:56.792Z,15.54
2022-10-08T19:08:23.427Z,16.02
2022-10-08T19:10:49.983Z,15.80
2022-10-08T19:13:16.910Z,15.95
2022-10-08T19:15:43.643Z,15.58
2022-10-08T19:18:10.219Z,15.66
2022-10-08T19:20:36.890Z,15.80
2022-10-08T19:23:04.119Z,15.80
2022-10-08T19:25:30.673Z,15.47
2022-10-08T19:27:57.404Z,15.41
2022-10-08T19:30:27.389Z,15.64
2022-10-08T19:32:56.053Z,15.42
2022-10-08T19:35:22.604Z,15.31
2022-10-08T19:37:52.206Z,15.39
2022-10-08T19:40:18.665Z,15.49
2022-10-08T19:42:45.416Z,15.60
2022-10-08T19:45:13.414Z,15.29
2022-10-08T19:47:40.098Z,15.39
2022-10-08T19:50:06.981Z,15.45
2022-10-08T19:52:33.511Z,15.09
2022-10-08T19:55:00.249Z,15.18
2022-10-08T19:57:26.770Z,15.30
2022-10-08T19:59:53.830Z,15.23
2022-10-08T20:02:20.444Z,15.08
2022-10-08T20:04:47.868Z,14.83
2022-10-08T20:07:14.438Z,15.24
2022-10-08T20:09:40.924Z,15.04
2022-10-08T20:12:07.469Z,15.31
2022-10-08T20:14:33.965Z,15.26
2022-10-08T20:17:00.924Z,15.06
2022-10-08T20:19:27.437Z,14.70
2022-10-08T20:21:56.929Z,14.65
2022-10-08T20:24:23.509Z,14.47
2022-10-08T20:26:50.252Z,14.67
2022-10-08T20:29:19.348Z,14.63
2022-10-08T20:31:51.264Z,14.62
2022-10-08T20:34:19.892Z,14.63
2022-10-08T20:36:47.731Z,14.86
2022-10-08T20:39:15.787Z,14.57
2022-10-08T20:41:42.619Z,14.63
2022-10-08T20:44:09.293Z,14.34
2022-10-08T20:46:37.074Z,14.66
2022-10-08T20:49:04.754Z,14.62
2022-10-08T20:51:31.908Z,14.57
2022-10-08T20:54:03.850Z,14.74
2022-10-08T20:56:37.147Z,14.79
2022-10-08T20:59:14.804Z,14.70
2022-10-08T21:01:41.677Z,14.71
2022-10-08T21:04:08.750Z,14.72
2022-10-08T21:06:40.487Z,14.70
2022-10-08T21:09:07.803Z,14.76
2022-10-08T21:11:34.681Z,14.69
2022-10-08T21:14:03.415Z,14.63
2022-10-08T21:16:32.859Z,14.83
2022-10-08T21:19:01.650Z,14.75
2022-10-08T21:21:29.468Z,14.69
2022-10-08T21:23:56.710Z,14.46
2022-10-08T21:26:24.574Z,14.62
2022-10-08T21:28:55.169Z,14.51
2022-10-08T21:31:22.143Z,14.53
2022-10-08T21:33:50.445Z,14.58
2022-10-08T21:36:21.297Z,14.54
2022-10-08T21:38:47.753Z,14.20
2022-10-08T21:41:16.594Z,14.14
2022-10-08T21:43:48.869Z,14.45
2022-10-08T21:46:18.062Z,14.38
2022-10-08T21:48:44.792Z,14.38
2022-10-08T21:51:21.792Z,14.33
2022-10-08T21:53:51.470Z,14.14
2022-10-08T21:56:20.699Z,14.05
2022-10-08T21:58:49.419Z,14.29
2022-10-08T22:01:29.502Z,14.22
2022-10-08T22:04:01.538Z,14.01
2022-10-08T22:06:30.709Z,14.21
2022-10-08T22:08:57.610Z,14.15
2022-10-08T22:11:25.019Z,14.32
2022-10-08T22:13:53.642Z,14.08
2022-10-08T22:16:21.575Z,13.66
2022-10-08T22:18:48.564Z,14.00
2022-10-08T22:21:18.621Z,14.08
2022-10-08T22:23:46.323Z,13.92
2022-10-08T22:26:19.062Z,13.79
2022-10-08T22:28:46.104Z,13.88
2022-10-08T22:31:14.674Z,13.33
2022-10-08T22:33:41.625Z,13.62
2022-10-08T22:36:14.341Z,13.86
2022-10-08T22:38:42.170Z,13.94
2022-10-08T22:41:14.931Z,13.80
2022-10-08T22:43:42.312Z,13.76
2022-10-08T22:46:14.623Z,13.39
2022-10-08T22:48:41.747Z,13.68
2022-10-08T22:51:12.864Z,13.00
2022-10-08T22:53:39.457Z,12.16
2022-10-08T22:56:07.229Z,12.28
2022-10-08T22:58:35.192Z,12.39
2022-10-08T23:01:08.564Z,12.23
2022-10-08T23:03:35.856Z,12.22
2022-10-08T23:06:03.936Z,12.25
2022-10-08T23:08:30.697Z,11.93
2022-10-08T23:10:58.228Z,12.42
2022-10-08T23:13:25.128Z,12.60
2022-10-08T23:16:06.502Z,12.64
2022-10-08T23:18:35.570Z,12.15
2022-10-08T23:21:23.143Z,12.57
2022-10-08T23:23:50.637Z,12.62
2022-10-08T23:26:17.569Z,12.30
2022-10-08T23:28:45.206Z,12.53
2022-10-08T23:31:14.370Z,12.42
2022-10-08T23:33:43.798Z,13.10
2022-10-08T23:36:12.243Z,13.34
2022-10-08T23:38:39.059Z,13.18
2022-10-08T23:41:07.566Z,13.50
2022-10-08T23:43:35.972Z,13.55
2022-10-08T23:46:03.339Z,13.46
2022-10-08T23:48:29.993Z,13.26
2022-10-08T23:50:56.905Z,13.64
2022-10-08T23:53:23.509Z,13.43
2022-10-08T23:55:50.269Z,13.09
2022-10-08T23:58:19.706Z,13.24
